sensor_id;sensor_type;location;lat;lon;timestamp;pressure;altitude;pressure_sealevel;temperature;humidity
77149;BME280;66122;47.130;16.844;2024-02-14T00:05:39;100383.59;;;0.63;100.00
77149;BME280;66122;47.130;16.844;2024-02-14T00:15:43;100391.25;;;1.01;100.00
77149;BME280;66122;47.130;16.844;2024-02-14T00:25:47;100384.22;;;1.09;100.00
77149;BME280;66122;47.130;16.844;2024-02-14T00:35:49;100389.59;;;0.85;100.00
77149;BME280;66122;47.130;16.844;2024-02-14T00:45:52;100393.09;;;0.79;100.00
77149;BME280;66122;47.130;16.844;2024-02-14T00:55:54;100397.41;;;0.85;100.00
77149;BME280;66122;47.130;16.844;2024-02-14T01:05:57;100384.38;;;0.82;100.00
77149;BME280;66122;47.130;16.844;2024-02-14T01:16:00;100385.47;;;0.02;100.00
77149;BME280;66122;47.130;16.844;2024-02-14T01:26:03;100398.47;;;0.32;100.00
77149;BME280;66122;47.130;16.844;2024-02-14T01:36:06;100401.84;;;0.58;100.00
77149;BME280;66122;47.130;16.844;2024-02-14T01:46:09;100396.56;;;0.79;100.00
77149;BME280;66122;47.130;16.844;2024-02-14T01:56:12;100398.38;;;0.62;100.00
77149;BME280;66122;47.130;16.844;2024-02-14T02:06:15;100394.09;;;0.37;100.00
77149;BME280;66122;47.130;16.844;2024-02-14T02:16:19;100395.84;;;0.30;100.00
77149;BME280;66122;47.130;16.844;2024-02-14T02:26:21;100387.97;;;0.53;100.00
77149;BME280;66122;47.130;16.844;2024-02-14T02:36:24;100391.50;;;0.40;100.00
77149;BME280;66122;47.130;16.844;2024-02-14T02:46:27;100409.69;;;0.57;100.00
77149;BME280;66122;47.130;16.844;2024-02-14T02:56:29;100407.13;;;0.40;100.00
77149;BME280;66122;47.130;16.844;2024-02-14T03:06:32;100429.75;;;0.17;100.00
77149;BME280;66122;47.130;16.844;2024-02-14T03:16:35;100421.91;;;0.39;100.00
77149;BME280;66122;47.130;16.844;2024-02-14T03:26:39;100441.03;;;0.08;100.00
77149;BME280;66122;47.130;16.844;2024-02-14T03:36:42;100444.53;;;0.03;100.00
77149;BME280;66122;47.130;16.844;2024-02-14T03:46:45;100452.34;;;0.03;100.00
77149;BME280;66122;47.130;16.844;2024-02-14T03:56:50;100461.03;;;-0.08;100.00
77149;BME280;66122;47.130;16.844;2024-02-14T04:06:54;100480.97;;;-0.38;100.00
77149;BME280;66122;47.130;16.844;2024-02-14T04:16:56;100493.13;;;-0.33;100.00
77149;BME280;66122;47.130;16.844;2024-02-14T04:26:59;100487.03;;;-0.46;100.00
77149;BME280;66122;47.130;16.844;2024-02-14T04:37:03;100498.34;;;-0.25;100.00
77149;BME280;66122;47.130;16.844;2024-02-14T04:47:12;100500.94;;;-0.13;100.00
77149;BME280;66122;47.130;16.844;2024-02-14T04:57:15;100489.69;;;0.05;100.00
77149;BME280;66122;47.130;16.844;2024-02-14T05:07:18;100500.97;;;-0.12;100.00
77149;BME280;66122;47.130;16.844;2024-02-14T05:17:20;100521.78;;;-0.24;100.00
77149;BME280;66122;47.130;16.844;2024-02-14T05:27:23;100526.09;;;-0.32;100.00
77149;BME280;66122;47.130;16.844;2024-02-14T05:37:25;100532.13;;;-0.42;100.00
77149;BME280;66122;47.130;16.844;2024-02-14T05:47:31;100539.97;;;-0.33;100.00
77149;BME280;66122;47.130;16.844;2024-02-14T05:57:34;100540.03;;;-0.18;100.00
77149;BME280;66122;47.130;16.844;2024-02-14T06:07:37;100553.06;;;-0.09;100.00
77149;BME280;66122;47.130;16.844;2024-02-14T06:17:40;100548.72;;;0.15;100.00
77149;BME280;66122;47.130;16.844;2024-02-14T06:27:43;100563.53;;;0.28;100.00
77149;BME280;66122;47.130;16.844;2024-02-14T06:37:46;100565.28;;;0.41;100.00
77149;BME280;66122;47.130;16.844;2024-02-14T06:48:00;100573.06;;;0.73;100.00
77149;BME280;66122;47.130;16.844;2024-02-14T06:58:03;100567.84;;;0.91;100.00
77149;BME280;66122;47.130;16.844;2024-02-14T07:08:08;100578.09;;;1.49;100.00
77149;BME280;66122;47.130;16.844;2024-02-14T07:18:18;100574.22;;;2.20;100.00
77149;BME280;66122;47.130;16.844;2024-02-14T07:28:24;100580.78;;;1.37;100.00
77149;BME280;66122;47.130;16.844;2024-02-14T07:38:29;100580.69;;;1.56;100.00
77149;BME280;66122;47.130;16.844;2024-02-14T07:48:34;100569.25;;;2.90;100.00
77149;BME280;66122;47.130;16.844;2024-02-14T07:58:37;100589.59;;;3.48;99.18
77149;BME280;66122;47.130;16.844;2024-02-14T08:08:40;100577.09;;;3.68;98.11
77149;BME280;66122;47.130;16.844;2024-02-14T08:18:42;100589.81;;;4.55;93.91
77149;BME280;66122;47.130;16.844;2024-02-14T08:28:47;100577.97;;;4.84;91.58
77149;BME280;66122;47.130;16.844;2024-02-14T08:38:49;100592.63;;;4.97;90.12
77149;BME280;66122;47.130;16.844;2024-02-14T08:48:52;100586.66;;;5.35;87.68
77149;BME280;66122;47.130;16.844;2024-02-14T08:58:57;100579.34;;;6.68;83.50
77149;BME280;66122;47.130;16.844;2024-02-14T09:09:02;100580.88;;;7.73;77.30
77149;BME280;66122;47.130;16.844;2024-02-14T09:19:06;100582.53;;;8.63;73.06
77149;BME280;66122;47.130;16.844;2024-02-14T09:29:10;100581.25;;;9.25;69.16
77149;BME280;66122;47.130;16.844;2024-02-14T09:39:17;100564.72;;;9.67;64.27
77149;BME280;66122;47.130;16.844;2024-02-14T09:49:21;100572.09;;;10.50;63.10
77149;BME280;66122;47.130;16.844;2024-02-14T09:59:25;100559.16;;;10.65;63.92
77149;BME280;66122;47.130;16.844;2024-02-14T10:09:29;100569.03;;;12.01;58.30
77149;BME280;66122;47.130;16.844;2024-02-14T10:19:32;100551.78;;;11.91;58.06
77149;BME280;66122;47.130;16.844;2024-02-14T10:29:35;100539.94;;;13.05;55.35
77149;BME280;66122;47.130;16.844;2024-02-14T10:39:41;100530.56;;;12.46;56.38
77149;BME280;66122;47.130;16.844;2024-02-14T10:49:46;100515.72;;;14.85;50.74
77149;BME280;66122;47.130;16.844;2024-02-14T10:59:49;100506.22;;;13.40;52.90
77149;BME280;66122;47.130;16.844;2024-02-14T11:10:05;100492.13;;;12.34;54.96
77149;BME280;66122;47.130;16.844;2024-02-14T11:30:26;100468.06;;;12.37;55.80
77149;BME280;66122;47.130;16.844;2024-02-14T11:40:29;100461.47;;;14.70;52.29
77149;BME280;66122;47.130;16.844;2024-02-14T11:50:32;100444.63;;;16.37;44.23
77149;BME280;66122;47.130;16.844;2024-02-14T12:00:37;100442.75;;;17.42;41.43
77149;BME280;66122;47.130;16.844;2024-02-14T12:10:42;100420.91;;;17.84;37.62
77149;BME280;66122;47.130;16.844;2024-02-14T12:20:46;100402.06;;;18.21;35.51
77149;BME280;66122;47.130;16.844;2024-02-14T12:30:56;100413.09;;;17.07;35.91
77149;BME280;66122;47.130;16.844;2024-02-14T12:41:00;100391.53;;;18.65;34.46
77149;BME280;66122;47.130;16.844;2024-02-14T12:51:04;100400.56;;;18.17;33.92
77149;BME280;66122;47.130;16.844;2024-02-14T13:01:11;100387.59;;;16.63;38.71
77149;BME280;66122;47.130;16.844;2024-02-14T13:11:15;100374.72;;;17.06;37.52
77149;BME280;66122;47.130;16.844;2024-02-14T13:21:21;100374.97;;;18.94;35.62
77149;BME280;66122;47.130;16.844;2024-02-14T13:31:24;100374.75;;;15.48;38.26
77149;BME280;66122;47.130;16.844;2024-02-14T13:41:26;100366.72;;;13.58;43.35
77149;BME280;66122;47.130;16.844;2024-02-14T13:51:29;100371.47;;;12.71;44.32
77149;BME280;66122;47.130;16.844;2024-02-14T14:01:31;100366.88;;;12.75;44.52
77149;BME280;66122;47.130;16.844;2024-02-14T14:11:34;100346.72;;;12.36;48.92
77149;BME280;66122;47.130;16.844;2024-02-14T14:21:37;100360.88;;;12.20;48.91
77149;BME280;66122;47.130;16.844;2024-02-14T14:31:40;100363.38;;;12.05;49.53
77149;BME280;66122;47.130;16.844;2024-02-14T14:41:43;100356.72;;;11.97;51.00
77149;BME280;66122;47.130;16.844;2024-02-14T14:51:46;100361.44;;;11.73;53.37
77149;BME280;66122;47.130;16.844;2024-02-14T15:01:51;100373.06;;;11.70;53.17
77149;BME280;66122;47.130;16.844;2024-02-14T15:11:54;100381.97;;;11.32;54.90
77149;BME280;66122;47.130;16.844;2024-02-14T15:21:57;100388.09;;;10.76;56.18
77149;BME280;66122;47.130;16.844;2024-02-14T15:32:04;100403.16;;;10.35;57.39
77149;BME280;66122;47.130;16.844;2024-02-14T15:42:26;100396.47;;;10.05;58.99
77149;BME280;66122;47.130;16.844;2024-02-14T15:52:29;100401.78;;;9.83;59.57
77149;BME280;66122;47.130;16.844;2024-02-14T16:02:32;100402.53;;;9.65;60.92
77149;BME280;66122;47.130;16.844;2024-02-14T16:12:34;100419.28;;;9.42;60.45
77149;BME280;66122;47.130;16.844;2024-02-14T16:22:38;100426.03;;;9.27;62.18
77149;BME280;66122;47.130;16.844;2024-02-14T16:32:42;100436.94;;;9.18;64.12
77149;BME280;66122;47.130;16.844;2024-02-14T16:42:46;100443.81;;;9.22;62.44
77149;BME280;66122;47.130;16.844;2024-02-14T16:52:49;100447.84;;;9.09;64.80
77149;BME280;66122;47.130;16.844;2024-02-14T17:02:52;100458.19;;;9.15;64.60
77149;BME280;66122;47.130;16.844;2024-02-14T17:12:57;100460.28;;;9.30;64.59
77149;BME280;66122;47.130;16.844;2024-02-14T17:23:02;100442.75;;;9.28;63.74
77149;BME280;66122;47.130;16.844;2024-02-14T17:33:05;100453.44;;;9.25;63.71
77149;BME280;66122;47.130;16.844;2024-02-14T17:43:08;100452.28;;;9.09;65.21
77149;BME280;66122;47.130;16.844;2024-02-14T17:53:11;100467.63;;;8.99;65.29
77149;BME280;66122;47.130;16.844;2024-02-14T18:03:14;100442.88;;;8.77;65.92
77149;BME280;66122;47.130;16.844;2024-02-14T18:13:16;100463.84;;;8.81;67.26
77149;BME280;66122;47.130;16.844;2024-02-14T18:23:19;100453.78;;;8.68;67.87
77149;BME280;66122;47.130;16.844;2024-02-14T18:33:22;100460.09;;;8.64;68.54
77149;BME280;66122;47.130;16.844;2024-02-14T18:43:28;100445.56;;;8.50;68.33
77149;BME280;66122;47.130;16.844;2024-02-14T18:53:31;100443.56;;;8.32;69.20
77149;BME280;66122;47.130;16.844;2024-02-14T19:03:34;100426.84;;;8.30;68.99
77149;BME280;66122;47.130;16.844;2024-02-14T19:13:38;100443.06;;;8.19;70.69
77149;BME280;66122;47.130;16.844;2024-02-14T19:23:44;100441.56;;;8.12;71.00
77149;BME280;66122;47.130;16.844;2024-02-14T19:33:48;100454.13;;;8.04;72.63
77149;BME280;66122;47.130;16.844;2024-02-14T19:43:51;100444.66;;;7.99;73.71
77149;BME280;66122;47.130;16.844;2024-02-14T19:53:53;100432.66;;;7.89;78.35
77149;BME280;66122;47.130;16.844;2024-02-14T20:03:56;100441.84;;;7.48;84.68
77149;BME280;66122;47.130;16.844;2024-02-14T20:14:01;100439.44;;;7.40;86.50
77149;BME280;66122;47.130;16.844;2024-02-14T20:24:04;100456.13;;;7.40;85.14
77149;BME280;66122;47.130;16.844;2024-02-14T20:34:08;100454.19;;;7.47;84.38
77149;BME280;66122;47.130;16.844;2024-02-14T20:44:10;100460.28;;;7.49;84.06
77149;BME280;66122;47.130;16.844;2024-02-14T20:54:13;100448.78;;;7.50;83.90
77149;BME280;66122;47.130;16.844;2024-02-14T21:04:16;100453.72;;;7.33;89.83
77149;BME280;66122;47.130;16.844;2024-02-14T21:14:19;100454.59;;;7.33;87.28
77149;BME280;66122;47.130;16.844;2024-02-14T21:24:21;100435.00;;;7.13;89.91
77149;BME280;66122;47.130;16.844;2024-02-14T21:34:24;100439.03;;;6.93;89.88
77149;BME280;66122;47.130;16.844;2024-02-14T21:44:26;100426.47;;;6.72;92.43
77149;BME280;66122;47.130;16.844;2024-02-14T21:54:31;100431.28;;;6.89;89.20
77149;BME280;66122;47.130;16.844;2024-02-14T22:04:34;100425.91;;;6.92;87.81
77149;BME280;66122;47.130;16.844;2024-02-14T22:14:38;100428.50;;;6.93;88.93
77149;BME280;66122;47.130;16.844;2024-02-14T22:24:40;100430.97;;;6.99;89.82
77149;BME280;66122;47.130;16.844;2024-02-14T22:34:43;100425.06;;;6.91;88.16
77149;BME280;66122;47.130;16.844;2024-02-14T22:44:46;100421.09;;;6.77;90.07
77149;BME280;66122;47.130;16.844;2024-02-14T22:54:48;100434.47;;;6.69;88.49
77149;BME280;66122;47.130;16.844;2024-02-14T23:04:51;100442.09;;;6.47;91.21
77149;BME280;66122;47.130;16.844;2024-02-14T23:14:54;100430.59;;;6.50;87.91
77149;BME280;66122;47.130;16.844;2024-02-14T23:24:56;100420.88;;;6.52;87.93
77149;BME280;66122;47.130;16.844;2024-02-14T23:34:59;100426.16;;;6.52;87.04
77149;BME280;66122;47.130;16.844;2024-02-14T23:45:02;100425.88;;;6.28;87.20
77149;BME280;66122;47.130;16.844;2024-02-14T23:55:06;100422.16;;;6.03;87.68
